메인 페이지
METAR-TAF:

METAR-TAF

공항 :

테헤란 메흐라바드 국제공항

테헤란, 이란

위도: 35-41N, 경도: 051-21E, 고도: 1204m

현재 날씨관측

예보는 27분 전, 05:30시(UTC)에 발표되었습니다.
8kt
온도 13°C
습도 28%
기압 1015 hPa
시정 10km 이상
고도 10000ft 상공 구름 조금

METAR: OIII 130530Z 17008KT 9999 FEW100 13/M05 Q1015 A2998

시각: 10:27 (05:57 UTC)

예보

예보는 6 시간 57분 전, 23:00시(UTC)에 발표되었습니다.
예보 대상 시간: 13일 00시부터 14일 06시까지 (UTC)
서북서6kt
시정: 7000m
고도 3500ft 상공 구름 조금
고도 10000ft 상공 구름 보통
일시적
13일 06시부터 13일 14시까지 (UTC)
고도 3500ft 상공 구름 조금, 적란운.
고도 4000ft 상공 구름 보통
고도 10000ft 상공 구름 많음

TAF: OIII 122300Z 1300/1406 30006KT 7000 FEW035 SCT100 TEMPO 1306/1314 FEW035CB SCT040 BKN100

4,000개 이상의 공항 관측 자료 및 예보 (METAR 및 TAF 보고).

지도상에서 검색 가능한 기상관측소가 노란 점과 빨간 점으로 표시되어 있습니다.

기상관측소 명을 보려면 표시 위로 마우스를 이동하세요.

날씨 관측과 예보를 보려면 클릭하세요.

지도 변경 : 확대하려면 엑스 표시가 있는 녹색 버튼, 축소하려면 빼기 표시가 있는 녹색 버튼, 다음 페이지의 지도를 보려면 녹색 화살표를 클릭하세요.


METAR-TAF: